Flight Track Log - Related Links

Times and Time Zones

All times are in EDT time to prevent confusion due to time zone crossing. See the AAL1459 flight status page for this flight to view local times or setup timezone preferences in your user account.


Time Position Orientation Groundspeed Altitude Reporting Facility
EDT Latitude Longitude Course Direction KTS MPH feet Rate Location/Type
Sat 08:23:57 PM 41.9833 -87.8833 270° West 166 191 1,800  Level Chicago TRACON
Sat 08:24:57 PM 41.9333 -87.8833 180° South 225 259 3,500 2,100 Climbing Chicago TRACON
Sat 08:25:57 PM 41.9333 -87.9833 270° West 300 345 6,000 2,598 Climbing Chicago TRACON
Sat 08:26:00 PM 41.9667 -88.3506 270° West  Level FlightAware Approximate
Sat 08:27:00 PM 41.9667 -88.5008 270° West  Level FlightAware Approximate
Sat 08:28:00 PM 41.9668 -88.6511 270° West  Level FlightAware Approximate
Sat 08:28:11 PM 41.9994 -88.2286 290° West 309 356 11,900  Level Chicago Center
Sat 08:29:00 PM 41.9667 -88.8013 270° West  Level FlightAware Approximate
Sat 08:29:13 PM 42.0267 -88.3586 286° West 354 407 13,300  Level Chicago Center
Sat 08:30:14 PM 42.0567 -88.4986 286° West 387 445 15,400 2,049 Climbing Chicago Center
Sat 08:31:16 PM 42.0656 -88.6525 275° West 412 474 17,500 2,032 Climbing Chicago Center
Sat 08:32:18 PM 42.0703 -88.8100 272° West 423 487 19,600 2,049 Climbing Chicago Center
Sat 08:33:19 PM 42.0778 -88.9839 273° West 426 490 21,700 1,756 Climbing Chicago Center
Sat 08:34:21 PM 42.0817 -89.1514 272° West 440 506 23,200 1,548 Climbing Chicago Center
Sat 08:35:23 PM 42.0856 -89.3242 272° West 458 527 24,900 1,512 Climbing Chicago Center
Sat 08:36:24 PM 42.0889 -89.4967 272° West 461 531 26,300 1,415 Climbing Chicago Center
Sat 08:37:26 PM 42.0942 -89.7053 272° West 474 545 27,800 1,258 Climbing Chicago Center
Sat 08:38:28 PM 42.0978 -89.8858 272° West 479 551 28,900 927 Climbing Chicago Center
Sat 08:39:29 PM 42.0997 -90.0753 271° West 488 562 29,700 732 Climbing Chicago Center
Sat 08:40:31 PM 42.1019 -90.2664 271° West 508 585 30,400 919 Climbing Chicago Center
Sat 08:41:33 PM 42.1031 -90.4594 271° West 517 595 31,600 1,268 Climbing Chicago Center
Sat 08:42:34 PM 42.1047 -90.6497 271° West 514 592 33,000 1,366 Climbing Chicago Center
Sat 08:43:36 PM 42.1339 -90.8292 282° West 496 571 34,400 1,366 Climbing Chicago Center
Sat 08:44:37 PM 42.1700 -90.9972 286° West 473 544 35,800 780 Climbing Chicago Center
Sat 08:45:39 PM 42.2042 -91.1667 285° West 469 540 36,000 97 Climbing Chicago Center
Sat 08:46:41 PM 42.2458 -91.3683 286° West 467 537 36,000  Level Chicago Center
Sat 08:47:42 PM 42.2794 -91.5372 285° West 467 537 36,000  Level Chicago Center
Sat 08:48:44 PM 42.3144 -91.7039 286° West 463 533 36,000  Level Chicago Center
Sat 08:49:45 PM 42.3469 -91.8719 285° West 462 532 36,000  Level Chicago Center
Sat 08:50:47 PM 42.3800 -92.0367 285° West 458 527 36,000 -145 Level Chicago Center
Sat 08:51:49 PM 42.4119 -92.2014 285° West 454 522 35,700 -634 Descending Chicago Center
Sat 08:52:50 PM 42.4453 -92.3689 285° West 460 529 34,700 -829 Descending Chicago Center
Sat 08:53:52 PM 42.4839 -92.5706 285° West 462 532 34,000 -341 Descending Chicago Center
Sat 08:54:53 PM 42.5169 -92.7400 285° West 466 536 34,000  Level Chicago Center
Sat 08:55:55 PM 42.5481 -92.9064 284° West 460 529 34,000  Level Chicago Center
Sat 08:56:57 PM 42.5794 -93.0725 284° West 458 527 34,000  Level Chicago Center
Sat 08:57:54 PM 42.6094 -93.2383 284° West 456 525 34,000  Level Minneapolis Center
Sat 08:58:56 PM 42.6408 -93.4028 285° West 454 522 34,000  Level Minneapolis Center
Sat 08:59:58 PM 42.6725 -93.5703 284° West 459 528 34,000  Level Minneapolis Center
Sat 09:00:59 PM 42.7042 -93.7369 285° West 461 531 34,000  Level Minneapolis Center
Sat 09:03:10 PM 42.7683 -94.1050 283° West 459 528 34,000  Level Chicago Center
Sat 09:04:03 PM 42.7933 -94.2394 284° West 460 529 34,000  Level Minneapolis Center
Sat 09:05:05 PM 42.8278 -94.4414 283° West 463 533 34,000  Level Minneapolis Center
Sat 09:07:09 PM 42.8867 -94.7836 283° West 453 521 34,000  Level Minneapolis Center
Sat 09:08:10 PM 42.9156 -94.9514 283° West 454 522 34,000  Level Minneapolis Center
Sat 09:09:12 PM 42.9433 -95.1183 283° West 452 520 34,000  Level Minneapolis Center
Sat 09:10:13 PM 42.9719 -95.2847 283° West 451 519 34,000  Level Minneapolis Center
Sat 09:11:15 PM 43.0044 -95.4856 283° West 451 519 34,000  Level Minneapolis Center
Sat 09:12:16 PM 43.0317 -95.6514 283° West 449 517 34,000  Level Minneapolis Center
Sat 09:13:18 PM 43.0589 -95.8156 283° West 445 512 34,000  Level Minneapolis Center
Sat 09:14:19 PM 43.0850 -95.9811 282° West 445 512 34,000  Level Minneapolis Center
Sat 09:15:21 PM 43.1111 -96.1436 282° West 438 504 34,000  Level Minneapolis Center
Sat 09:16:22 PM 43.1361 -96.3047 282° West 433 498 34,000 146 Level Minneapolis Center
Sat 09:17:24 PM 43.1617 -96.4672 282° West 435 501 34,300 732 Climbing Minneapolis Center
Sat 09:18:25 PM 43.1867 -96.6300 282° West 435 501 35,500 829 Climbing Minneapolis Center
Sat 09:19:27 PM 43.2114 -96.7933 282° West 436 502 36,000 244 Climbing Minneapolis Center
Sat 09:20:28 PM 43.2411 -96.9883 282° West 435 501 36,000  Level Minneapolis Center
Sat 09:21:30 PM 43.2653 -97.1525 281° West 438 504 36,000  Level Minneapolis Center
Sat 09:22:31 PM 43.2900 -97.3150 282° West 437 503 36,000  Level Minneapolis Center
Sat 09:23:33 PM 43.3133 -97.4772 281° West 434 499 36,000  Level Minneapolis Center
Sat 09:24:34 PM 43.3369 -97.6383 281° West 431 496 36,000  Level Minneapolis Center
Sat 09:25:36 PM 43.3594 -97.7975 281° West 427 491 36,000  Level Minneapolis Center
Sat 09:26:37 PM 43.3814 -97.9553 281° West 423 487 36,000  Level Minneapolis Center
Sat 09:27:38 PM 43.4033 -98.1125 281° West 421 484 36,000  Level Minneapolis Center
Sat 09:28:40 PM 43.4250 -98.2725 281° West 424 488 36,000  Level Minneapolis Center
Sat 09:29:41 PM 43.4431 -98.4000 281° West 426 490 36,000  Level Minneapolis Center
Sat 09:30:42 PM 43.4719 -98.6244 280° West 428 493 36,000  Level Minneapolis Center
Sat 09:31:44 PM 43.4914 -98.7647 281° West 429 494 36,000  Level Minneapolis Center
Sat 09:32:45 PM 43.5133 -98.9278 281° West 432 497 36,000  Level Minneapolis Center
Sat 09:33:47 PM 43.5394 -99.1233 281° West 432 497 36,000  Level Minneapolis Center
Sat 09:34:48 PM 43.5597 -99.2861 280° West 431 496 36,000  Level Minneapolis Center
Sat 09:35:49 PM 43.5803 -99.4475 280° West 429 494 36,000  Level Minneapolis Center
Sat 09:36:51 PM 43.6011 -99.6086 280° West 427 491 36,000  Level Minneapolis Center
Sat 09:37:52 PM 43.6194 -99.7686 279° West 424 488 36,000  Level Minneapolis Center
Sat 09:38:53 PM 43.6408 -99.9306 280° West 426 490 36,000  Level Minneapolis Center
Sat 09:39:55 PM 43.6608 -100.0900 280° West 423 487 36,000  Level Minneapolis Center
Sat 09:40:56 PM 43.6797 -100.2481 279° West 419 482 36,000  Level Minneapolis Center
Sat 09:41:58 PM 43.6981 -100.4094 279° West 422 486 36,000  Level Minneapolis Center
Sat 09:42:59 PM 43.7175 -100.5683 280° West 421 484 36,000  Level Minneapolis Center
Sat 09:44:00 PM 43.7394 -100.7619 279° West 423 487 36,000  Level Minneapolis Center
Sat 09:45:02 PM 43.7581 -100.9231 279° West 424 488 36,000  Level Minneapolis Center
Sat 09:45:41 PM 43.7681 -101.0172 278° West 424 488 36,000  Level Denver Center
Sat 09:46:43 PM 43.7861 -101.1794 279° West 427 491 36,000  Level Denver Center
Sat 09:47:44 PM 43.8044 -101.3403 279° West 423 487 36,000  Level Denver Center
Sat 09:48:45 PM 43.8217 -101.5000 279° West 421 484 36,000  Level Denver Center
Sat 09:49:47 PM 43.8392 -101.6600 279° West 419 482 36,000  Level Denver Center
Sat 09:50:48 PM 43.8567 -101.8183 279° West 418 481 36,000  Level Denver Center
Sat 09:51:49 PM 43.8686 -101.9703 276° West 403 464 36,000  Level Denver Center
Sat 09:52:51 PM 43.8867 -102.1581 278° West 405 466 36,000  Level Denver Center
Sat 09:53:52 PM 43.9044 -102.3161 279° West 411 473 36,000  Level Denver Center
Sat 09:54:53 PM 43.9242 -102.4778 280° West 419 482 36,000  Level Denver Center
Sat 09:55:55 PM 43.9392 -102.6358 278° West 417 480 36,000  Level Denver Center
Sat 09:56:56 PM 43.9553 -102.7953 278° West 417 480 36,000  Level Denver Center
Sat 09:57:57 PM 43.9717 -102.9564 278° West 418 481 36,000  Level Denver Center
Sat 09:58:59 PM 43.9797 -103.1294 274° West 410 472 36,000  Level Denver Center
Sat 10:00:00 PM 43.9833 -103.2811 272° West 410 472 36,000  Level Denver Center
Sat 10:01:01 PM 43.9842 -103.4267 271° West 401 461 36,000  Level Denver Center
Sat 10:02:03 PM 43.9878 -103.5981 272° West 400 460 36,000  Level Denver Center
Sat 10:03:04 PM 43.9908 -103.7472 272° West 403 464 36,000  Level Denver Center
Sat 10:04:05 PM 43.9931 -103.9181 271° West 400 460 36,000  Level Denver Center
Sat 10:05:07 PM 43.9939 -104.0650 271° West 402 463 36,000  Level Denver Center
Sat 10:06:08 PM 43.9964 -104.2175 271° West 410 472 36,000  Level Denver Center
Sat 10:07:09 PM 43.9986 -104.3886 271° West 401 461 36,000  Level Denver Center
Sat 10:08:11 PM 43.9997 -104.5356 271° West 400 460 36,000 244 Level Denver Center
Sat 10:09:12 PM 44.0014 -104.7097 271° West 403 464 36,500 492 Climbing Denver Center
Sat 10:10:13 PM 44.0028 -104.8567 271° West 400 460 37,000 244 Climbing Denver Center
Sat 10:11:15 PM 44.0031 -105.0053 270° West 402 463 37,000  Level Denver Center
Sat 10:12:16 PM 43.9806 -105.1736 260° West 395 455 37,000  Level Denver Center
Sat 10:13:18 PM 43.9592 -105.3172 258° West 396 456 37,000  Level Denver Center
Sat 10:14:19 PM 43.9336 -105.4833 258° West 396 456 37,000  Level Denver Center
Sat 10:15:21 PM 43.9111 -105.6267 258° West 398 458 37,000  Level Denver Center
Sat 10:16:22 PM 43.8867 -105.7917 258° West 394 453 37,000  Level Denver Center
Sat 10:17:23 PM 43.8644 -105.9297 257° West 389 448 37,000  Level Denver Center
Sat 10:18:25 PM 43.8406 -106.0714 257° West 393 452 37,000  Level Denver Center
Sat 10:19:26 PM 43.8147 -106.2333 258° West 389 448 37,000 244 Level Denver Center
Sat 10:20:28 PM 43.7928 -106.3717 258° West 387 445 37,500 488 Climbing Denver Center
Sat 10:21:29 PM 43.7661 -106.5356 257° West 391 450 38,000 244 Climbing Denver Center
Sat 10:22:31 PM 43.7439 -106.6756 258° West 390 449 38,000  Level Denver Center
Sat 10:23:32 PM 43.7208 -106.8142 257° West 388 447 38,000  Level Denver Center
Sat 10:24:08 PM 43.7053 -106.9072 257° West 382 440 38,000  Level Salt Lake Center
Sat 10:25:10 PM 43.6797 -107.0506 256° West 382 440 38,000  Level Salt Lake Center
Sat 10:26:13 PM 43.6569 -107.1919 257° West 380 437 38,000  Level Salt Lake Center
Sat 10:27:12 PM 43.6322 -107.3328 256° West 378 435 38,000  Level Salt Lake Center
Sat 10:28:13 PM 43.6072 -107.4778 257° West 385 443 38,000  Level Salt Lake Center
Sat 10:29:14 PM 43.5825 -107.6208 257° West 384 442 38,000  Level Salt Lake Center
Sat 10:30:15 PM 43.5531 -107.7906 257° West 382 440 38,000  Level Salt Lake Center
Sat 10:31:17 PM 43.5281 -107.9336 256° West 384 442 38,000  Level Salt Lake Center
Sat 10:32:18 PM 43.5028 -108.0783 257° West 389 448 38,000  Level Salt Lake Center
Sat 10:33:19 PM 43.4764 -108.2231 256° West 389 448 38,000  Level Salt Lake Center
Sat 10:34:20 PM 43.4453 -108.3658 253° West 390 449 38,000  Level Salt Lake Center
Sat 10:35:21 PM 43.4064 -108.5019 249° West 385 443 38,000  Level Salt Lake Center
Sat 10:36:22 PM 43.3681 -108.6383 249° West 383 441 38,000  Level Salt Lake Center
Sat 10:37:24 PM 43.3294 -108.7733 249° West 381 438 38,000  Level Salt Lake Center
Sat 10:38:25 PM 43.2906 -108.9089 249° West 382 440 38,000  Level Salt Lake Center
Sat 10:39:26 PM 43.2514 -109.0456 249° West 386 444 38,000  Level Salt Lake Center
Sat 10:40:27 PM 43.2122 -109.1797 248° West 381 438 38,000  Level Salt Lake Center
Sat 10:41:28 PM 43.1653 -109.3403 248° West 379 436 38,000  Level Salt Lake Center
Sat 10:42:29 PM 43.1261 -109.4764 249° West 382 440 38,000  Level Salt Lake Center
Sat 10:43:31 PM 43.0861 -109.6117 248° West 385 443 38,000  Level Salt Lake Center
Sat 10:44:32 PM 43.0458 -109.7475 248° West 386 444 38,000  Level Salt Lake Center
Sat 10:45:33 PM 43.0081 -109.8753 248° West 387 445 38,000  Level Salt Lake Center
Sat 10:46:34 PM 42.9625 -110.0261 248° West 385 443 38,000  Level Salt Lake Center
Sat 10:47:35 PM 42.9228 -110.1586 248° West 391 450 38,000  Level Salt Lake Center
Sat 10:48:36 PM 42.8831 -110.2903 248° West 392 451 38,000  Level Salt Lake Center
Sat 10:49:37 PM 42.8361 -110.4453 248° West 395 455 38,000  Level Salt Lake Center
Sat 10:50:39 PM 42.7958 -110.5758 247° West 391 450 38,000  Level Salt Lake Center
Sat 10:51:40 PM 42.7497 -110.7244 247° West 383 441 38,000  Level Salt Lake Center
Sat 10:52:41 PM 42.7083 -110.8589 247° West 387 445 38,000  Level Salt Lake Center
Sat 10:53:42 PM 42.6703 -110.9814 247° West 388 447 38,000  Level Salt Lake Center
Sat 10:54:43 PM 42.6289 -111.1158 247° West 388 447 38,000  Level Salt Lake Center
Sat 10:55:44 PM 42.5858 -111.2517 247° West 393 452 38,000  Level Salt Lake Center
Sat 10:56:46 PM 42.5342 -111.4133 247° West 390 449 38,000  Level Salt Lake Center
Sat 10:57:47 PM 42.4922 -111.5464 247° West 387 445 38,000  Level Salt Lake Center
Sat 10:58:48 PM 42.4506 -111.6797 247° West 386 444 38,000  Level Salt Lake Center
Sat 10:59:49 PM 42.4072 -111.8128 246° West 387 445 38,000  Level Salt Lake Center
Sat 11:00:50 PM 42.3636 -111.9447 246° West 386 444 38,000  Level Salt Lake Center
Sat 11:01:51 PM 42.3214 -112.0778 247° West 386 444 38,000  Level Salt Lake Center
Sat 11:02:52 PM 42.2778 -112.2100 246° West 387 445 38,000  Level Salt Lake Center
Sat 11:03:54 PM 42.2339 -112.3419 246° West 387 445 38,000  Level Salt Lake Center
Sat 11:04:55 PM 42.1900 -112.4772 246° West 392 451 38,000  Level Salt Lake Center
Sat 11:05:56 PM 42.1353 -112.6431 246° West 402 463 38,000  Level Salt Lake Center
Sat 11:06:57 PM 42.0908 -112.7789 246° West 400 460 38,000  Level Salt Lake Center
Sat 11:07:58 PM 42.0467 -112.9122 246° West 395 455 38,000  Level Salt Lake Center
Sat 11:08:59 PM 42.0031 -113.0464 246° West 395 455 38,000  Level Salt Lake Center
Sat 11:10:00 PM 41.9586 -113.1797 246° West 394 453 38,000  Level Salt Lake Center
Sat 11:11:01 PM 41.9136 -113.3144 246° West 396 456 38,000  Level Salt Lake Center
Sat 11:12:02 PM 41.8683 -113.4478 246° West 396 456 38,000  Level Salt Lake Center
Sat 11:13:03 PM 41.8250 -113.5786 246° West 387 445 38,000  Level Salt Lake Center
Sat 11:14:04 PM 41.7806 -113.7094 246° West 387 445 38,000  Level Salt Lake Center
Sat 11:15:05 PM 41.7453 -113.8472 251° West 391 450 38,000  Level Salt Lake Center
Sat 11:16:06 PM 41.7033 -114.0136 251° West 395 455 38,000  Level Salt Lake Center
Sat 11:17:08 PM 41.6672 -114.1506 251° West 393 452 38,000  Level Salt Lake Center
Sat 11:18:09 PM 41.6250 -114.2858 247° West 394 453 38,000  Level Salt Lake Center
Sat 11:19:10 PM 41.5775 -114.4161 244° Southwest 391 450 38,000  Level Salt Lake Center
Sat 11:20:11 PM 41.5303 -114.5486 245° Southwest 395 455 38,000  Level Salt Lake Center
Sat 11:21:12 PM 41.4828 -114.6811 244° Southwest 397 457 38,000  Level Salt Lake Center
Sat 11:22:13 PM 41.4350 -114.8139 244° Southwest 399 459 38,000  Level Salt Lake Center
Sat 11:23:14 PM 41.3867 -114.9469 244° Southwest 396 456 38,000  Level Salt Lake Center
Sat 11:24:15 PM 41.3325 -115.0928 244° Southwest 395 455 38,000  Level Salt Lake Center
Sat 11:25:16 PM 41.2875 -115.2183 245° Southwest 393 452 38,000  Level Salt Lake Center
Sat 11:26:17 PM 41.2419 -115.3425 244° Southwest 392 451 38,000  Level Salt Lake Center
Sat 11:27:18 PM 41.1886 -115.4856 244° Southwest 389 448 38,000  Level Salt Lake Center
Sat 11:28:19 PM 41.1444 -115.6094 245° Southwest 387 445 38,000  Level Salt Lake Center
Sat 11:29:20 PM 41.0981 -115.7311 243° Southwest 388 447 38,000  Level Salt Lake Center
Sat 11:30:21 PM 41.0453 -115.8731 244° Southwest 386 444 38,000  Level Salt Lake Center
Sat 11:31:22 PM 41.0000 -115.9969 244° Southwest 388 447 38,000  Level Salt Lake Center
Sat 11:32:23 PM 40.9533 -116.1194 243° Southwest 390 449 38,000  Level Salt Lake Center
Sat 11:33:24 PM 40.8983 -116.2636 243° Southwest 393 452 38,000  Level Salt Lake Center
Sat 11:34:25 PM 40.8517 -116.3858 243° Southwest 391 450 38,000  Level Salt Lake Center
Sat 11:35:26 PM 40.7969 -116.5283 243° Southwest 392 451 38,000  Level Salt Lake Center
Sat 11:36:27 PM 40.7486 -116.6533 243° Southwest 399 459 38,000  Level Salt Lake Center
Sat 11:37:28 PM 40.7017 -116.7778 244° Southwest 398 458 38,000  Level Salt Lake Center
Sat 11:38:29 PM 40.6447 -116.9219 243° Southwest 401 461 38,000  Level Salt Lake Center
Sat 11:39:30 PM 40.5964 -117.0456 243° Southwest 402 463 38,000 -541 Level Salt Lake Center
Sat 11:40:31 PM 40.5414 -117.1908 244° Southwest 401 461 36,900 -1,082 Descending Salt Lake Center
Sat 11:41:32 PM 40.4925 -117.3136 242° Southwest 399 459 35,800 -1,082 Descending Salt Lake Center
Sat 11:42:33 PM 40.4428 -117.4381 242° Southwest 404 465 34,700 -1,180 Descending Salt Lake Center
Sat 11:43:34 PM 40.3853 -117.5819 242° Southwest 401 461 33,400 -1,131 Descending Salt Lake Center
Sat 11:44:35 PM 40.3347 -117.7081 242° Southwest 407 468 32,400 -694 Descending Salt Lake Center
Sat 11:45:35 PM 40.2842 -117.8350 242° Southwest 411 473 32,000 -198 Descending Salt Lake Center
Sat 11:46:36 PM 40.3303 -117.9325 302° West 403 464 32,000 -443 Level Salt Lake Center
Sat 11:47:37 PM 40.1653 -118.1017 218° Southwest 410 472 31,100 -1,279 Descending Salt Lake Center
Sat 11:48:38 PM 40.0831 -118.2383 232° Southwest 425 489 29,400 -1,770 Descending Salt Lake Center
Sat 11:49:39 PM 40.0239 -118.3422 233° Southwest 428 493 27,500 -2,361 Descending Salt Lake Center
Sat 11:50:40 PM 39.9400 -118.4869 233° Southwest 420 483 24,600 -2,852 Descending Salt Lake Center
Sat 11:51:41 PM 39.8733 -118.6022 233° Southwest 404 465 21,700 -2,361 Descending Salt Lake Center
Sat 11:52:42 PM 39.8064 -118.7169 233° Southwest 401 461 19,800 -1,672 Descending Salt Lake Center
Sat 11:53:43 PM 39.7422 -118.8269 233° Southwest 389 448 18,300 -1,279 Descending Salt Lake Center
Sat 11:54:44 PM 39.6800 -118.9342 233° Southwest 378 435 17,200 -1,082 Descending Salt Lake Center
Sat 11:55:45 PM 39.6183 -119.0392 233° Southwest 371 427 16,100 -1,095 Descending Salt Lake Center
Sat 11:57:12 PM 39.5333 -119.1817 232° Southwest 359 413 14,500 -1,257 Descending Oakland Center
Sat 11:58:13 PM 39.4622 -119.3019 233° Southwest 354 407 13,000 -1,240 Descending Oakland Center
Sat 11:59:13 PM 39.4044 -119.3978 232° Southwest 345 397 12,000 -496 Descending Oakland Center
Sun 12:00:14 AM 39.3522 -119.4850 232° Southwest 325 374 12,000 -443 Level Oakland Center
Sun 12:01:15 AM 39.3022 -119.5694 233° Southwest 311 358 11,100 -836 Descending Oakland Center
Sun 12:02:16 AM 39.2569 -119.6453 232° Southwest 289 333 10,300 -942 Descending Oakland Center
Sun 12:03:16 AM 39.2575 -119.7217 271° West 257 296 9,200 -843 Descending Oakland Center
Sun 12:04:17 AM 39.3192 -119.7533 338° Northwest 243 280 8,600 -1,127 Descending Oakland Center
Sun 12:06:01 AM 39.4167 -119.7667 354° North 181 208 6,100 -1,442 Descending Northern Cal TRACON

Login

Don't have an account? Register now (free) for customized features, flight alerts, and more!